Time;durP1;ratioP1;P1;durP2;ratioP2;P2;SDS_P1;SDS_P2;PMS_P1;PMS_P2;Temp;Humidity;BMP_temperature;BMP_pressure;BME280_temperature;BME280_humidity;BME280_pressure;Samples;Min_cycle;Max_cycle;Signal;HPM_P1;HPM_P2
2022/10/10 00:01:08;;;;;;;6.73;5.63;;;;;;;10.00;100.00;98268.66;5106463;28;20259;-70
2022/10/10 00:03:35;;;;;;;8.47;6.03;;;;;;;10.05;100.00;98263.97;5107003;28;20264;-71
2022/10/10 00:06:02;;;;;;;7.17;6.13;;;;;;;10.09;100.00;98267.25;5104363;28;20301;-71
2022/10/10 00:08:28;;;;;;;10.63;7.07;;;;;;;10.10;100.00;98263.66;5104333;28;20252;-71
2022/10/10 00:10:56;;;;;;;7.73;6.00;;;;;;;10.12;100.00;98267.91;5105447;28;20280;-70
2022/10/10 00:13:23;;;;;;;6.93;5.80;;;;;;;10.14;100.00;98266.00;5107110;28;20411;-70
2022/10/10 00:15:50;;;;;;;9.83;6.33;;;;;;;10.17;100.00;98270.25;5110054;28;20596;-71
2022/10/10 00:18:17;;;;;;;7.90;6.63;;;;;;;10.18;100.00;98259.59;5109945;28;20270;-71
2022/10/10 00:20:43;;;;;;;8.73;6.07;;;;;;;10.22;100.00;98257.59;5106168;28;20261;-71
2022/10/10 00:23:10;;;;;;;7.10;6.10;;;;;;;10.26;100.00;98259.06;5106564;28;20265;-70
2022/10/10 00:25:37;;;;;;;7.03;6.10;;;;;;;10.32;100.00;98259.50;5109368;28;20266;-70
2022/10/10 00:28:05;;;;;;;6.67;5.97;;;;;;;10.36;100.00;98255.72;5108931;28;20259;-70
2022/10/10 00:30:34;;;;;;;8.77;6.00;;;;;;;10.39;100.00;98258.16;5106135;28;20323;-70
2022/10/10 00:33:01;;;;;;;8.87;6.77;;;;;;;10.44;100.00;98257.84;5106467;28;20222;-70
2022/10/10 00:35:28;;;;;;;7.40;6.03;;;;;;;10.50;100.00;98254.78;5109752;28;20631;-71
2022/10/10 00:37:55;;;;;;;9.67;6.87;;;;;;;10.54;100.00;98254.50;5108305;28;20255;-71
2022/10/10 00:40:23;;;;;;;7.90;6.13;;;;;;;10.58;100.00;98250.69;5107471;28;20257;-71
2022/10/10 00:42:50;;;;;;;7.67;6.77;;;;;;;10.62;100.00;98246.03;5107362;28;20263;-71
2022/10/10 00:45:37;;;;;;;9.53;7.10;;;;;;;10.67;100.00;98249.22;5103993;28;20264;-71
2022/10/10 00:48:09;;;;;;;8.10;6.30;;;;;;;10.71;100.00;98242.78;5105996;28;20273;-71
2022/10/10 00:50:40;;;;;;;7.80;6.83;;;;;;;10.73;100.00;98248.81;5107706;28;20263;-70
2022/10/10 00:53:10;;;;;;;10.17;7.30;;;;;;;10.76;100.00;98248.63;5102237;28;20265;-70
2022/10/10 00:55:38;;;;;;;9.27;6.10;;;;;;;10.75;100.00;98245.13;5112126;28;20598;-70
2022/10/10 00:58:06;;;;;;;8.63;6.60;;;;;;;10.77;100.00;98239.72;5106332;28;20291;-70
2022/10/10 01:00:34;;;;;;;8.20;6.77;;;;;;;10.80;100.00;98236.84;5106280;28;20590;-70
2022/10/10 01:03:01;;;;;;;10.23;6.50;;;;;;;10.82;100.00;98238.44;5109757;28;20261;-70
2022/10/10 01:05:28;;;;;;;10.40;6.70;;;;;;;10.83;100.00;98234.84;5109562;28;20279;-70
2022/10/10 01:07:55;;;;;;;8.60;6.47;;;;;;;10.85;100.00;98230.31;5105993;28;20509;-70
2022/10/10 01:10:23;;;;;;;8.30;6.27;;;;;;;10.91;100.00;98235.19;5105852;28;20674;-70
2022/10/10 01:13:02;;;;;;;8.17;6.63;;;;;;;10.93;100.00;98232.41;5109245;28;20222;-72
2022/10/10 01:15:40;;;;;;;9.40;6.57;;;;;;;10.96;100.00;98229.56;5108080;28;20267;-71
2022/10/10 01:18:17;;;;;;;7.93;6.63;;;;;;;10.98;100.00;98233.81;5103610;28;20262;-72
2022/10/10 01:20:53;;;;;;;7.90;6.73;;;;;;;10.98;100.00;98217.09;5104512;28;20258;-70
2022/10/10 01:23:47;;;;;;;7.30;6.50;;;;;;;10.96;100.00;98219.81;5108836;28;20274;-71
2022/10/10 01:26:32;;;;;;;8.90;6.97;;;;;;;10.97;100.00;98226.84;5109720;28;20218;-70
2022/10/10 01:29:07;;;;;;;10.93;7.07;;;;;;;10.98;100.00;98217.09;5107476;28;20258;-70
2022/10/10 01:31:42;;;;;;;9.67;6.93;;;;;;;10.96;100.00;98214.53;5109046;28;20287;-70
2022/10/10 01:34:16;;;;;;;7.93;6.90;;;;;;;10.99;100.00;98218.78;5110799;28;20272;-70
2022/10/10 01:36:50;;;;;;;9.53;6.73;;;;;;;10.99;100.00;98218.78;5112780;28;20595;-70
2022/10/10 01:39:23;;;;;;;8.90;6.70;;;;;;;11.00;100.00;98216.03;5109850;28;20332;-70
2022/10/10 01:41:59;;;;;;;7.93;6.77;;;;;;;11.00;100.00;98217.84;5109215;28;20263;-70
2022/10/10 01:44:27;;;;;;;7.97;6.67;;;;;;;11.00;100.00;98217.84;5110815;28;20261;-70
2022/10/10 01:46:54;;;;;;;7.43;6.57;;;;;;;10.97;100.00;98216.25;5111687;28;20265;-70
2022/10/10 01:49:24;;;;;;;10.00;6.77;;;;;;;10.98;100.00;98217.09;5108809;28;20262;-71
2022/10/10 01:52:03;;;;;;;8.17;6.33;;;;;;;10.96;100.00;98211.91;5116003;28;20277;-70
2022/10/10 01:54:41;;;;;;;7.70;6.10;;;;;;;10.97;100.00;98215.41;5107006;28;20266;-70
2022/10/10 01:57:20;;;;;;;8.07;6.30;;;;;;;10.97;100.00;98204.81;5108471;28;20262;-70
2022/10/10 01:59:59;;;;;;;7.40;6.17;;;;;;;10.96;100.00;98209.25;5110878;28;20257;-70
2022/10/10 02:02:37;;;;;;;9.33;6.37;;;;;;;10.96;100.00;98206.59;5112285;28;20264;-70
2022/10/10 02:05:10;;;;;;;8.10;6.43;;;;;;;10.94;100.00;98205.03;5108421;28;20262;-70
2022/10/10 02:07:43;;;;;;;8.70;6.73;;;;;;;10.93;100.00;98198.91;5110147;28;20291;-70
2022/10/10 02:10:13;;;;;;;8.13;6.20;;;;;;;10.91;100.00;98199.97;5110286;28;20268;-70
2022/10/10 02:12:40;;;;;;;8.57;6.47;;;;;;;10.91;100.00;98206.09;5109569;28;20696;-70
2022/10/10 02:15:13;;;;;;;8.80;6.93;;;;;;;10.92;100.00;98201.66;5108206;28;20267;-70
2022/10/10 02:17:42;;;;;;;8.17;6.63;;;;;;;10.91;100.00;98211.41;5106419;28;20315;-70
2022/10/10 02:20:12;;;;;;;7.37;6.30;;;;;;;10.92;100.00;98204.28;5106403;28;20264;-70
2022/10/10 02:22:42;;;;;;;9.23;6.77;;;;;;;10.93;100.00;98212.13;5110512;28;20581;-70
2022/10/10 02:25:09;;;;;;;8.23;6.50;;;;;;;10.95;100.00;98206.75;5109418;28;20268;-73
2022/10/10 02:27:44;;;;;;;8.93;6.80;;;;;;;10.97;100.00;98204.81;5106305;28;20259;-71
2022/10/10 02:30:14;;;;;;;10.17;6.83;;;;;;;10.99;100.00;98205.53;5107041;28;20264;-70
2022/10/10 02:32:43;;;;;;;8.73;6.87;;;;;;;10.99;100.00;98205.53;5109271;28;20320;-70
2022/10/10 02:35:14;;;;;;;8.07;6.47;;;;;;;10.98;100.00;98209.16;5107697;28;20337;-70
2022/10/10 02:37:42;;;;;;;7.40;6.50;;;;;;;10.98;100.00;98206.50;5104396;28;20261;-70
2022/10/10 02:40:12;;;;;;;8.43;6.90;;;;;;;10.97;100.00;98207.47;5107793;28;20641;-70
2022/10/10 02:42:40;;;;;;;9.27;6.30;;;;;;;10.96;100.00;98208.41;5109719;28;20261;-70
2022/10/10 02:45:07;;;;;;;8.47;6.40;;;;;;;10.95;100.00;98201.44;5106562;28;20272;-70
2022/10/10 02:47:35;;;;;;;8.90;7.07;;;;;;;10.93;100.00;98205.97;5106048;28;20269;-70
2022/10/10 02:50:02;;;;;;;9.77;6.57;;;;;;;10.90;100.00;98198.28;5108450;28;20350;-70
2022/10/10 02:52:29;;;;;;;8.93;6.83;;;;;;;10.84;100.00;98201.34;5109670;28;20277;-70
2022/10/10 02:54:56;;;;;;;7.80;6.80;;;;;;;10.79;100.00;98198.16;5109400;28;20560;-70
2022/10/10 02:57:22;;;;;;;8.93;7.30;;;;;;;10.72;100.00;98203.03;5111382;28;20263;-72
2022/10/10 02:59:49;;;;;;;7.43;6.50;;;;;;;10.64;100.00;98204.50;5109155;28;20265;-69
2022/10/10 03:02:16;;;;;;;7.47;6.37;;;;;;;10.54;100.00;98200.78;5105582;28;20268;-69
2022/10/10 03:04:44;;;;;;;8.20;6.73;;;;;;;10.44;100.00;98197.06;5110018;28;20223;-71
2022/10/10 03:07:10;;;;;;;8.00;6.20;;;;;;;10.34;100.00;98198.66;5117375;28;20251;-71
2022/10/10 03:09:37;;;;;;;8.93;6.77;;;;;;;10.28;100.00;98199.91;5109193;28;20259;-71
2022/10/10 03:12:04;;;;;;;7.87;6.53;;;;;;;10.24;100.00;98205.50;5107077;28;20280;-71
2022/10/10 03:14:31;;;;;;;9.77;7.30;;;;;;;10.20;100.00;98206.63;5109499;28;20222;-71
2022/10/10 03:16:58;;;;;;;8.10;6.70;;;;;;;10.16;100.00;98202.53;5110954;28;20269;-71
2022/10/10 03:19:24;;;;;;;9.17;7.30;;;;;;;10.16;100.00;98203.34;5109401;28;20269;-71
2022/10/10 03:21:52;;;;;;;9.77;7.57;;;;;;;10.19;100.00;98204.94;5106885;28;20600;-71
2022/10/10 03:24:19;;;;;;;9.33;6.90;;;;;;;10.17;100.00;98206.84;5109053;28;20260;-71
2022/10/10 03:26:46;;;;;;;8.00;7.03;;;;;;;10.18;100.00;98208.53;5110668;28;20619;-71
2022/10/10 03:29:12;;;;;;;8.20;7.00;;;;;;;10.18;100.00;98208.53;5107692;28;20262;-70
2022/10/10 03:31:39;;;;;;;7.80;6.97;;;;;;;10.12;100.00;98201.88;5106806;28;20278;-71
2022/10/10 03:34:06;;;;;;;9.37;7.10;;;;;;;10.07;100.00;98200.47;5108634;28;20272;-72
2022/10/10 03:36:33;;;;;;;9.77;7.37;;;;;;;10.00;100.00;98202.66;5110639;28;20257;-72
2022/10/10 03:39:01;;;;;;;8.70;7.17;;;;;;;9.90;100.00;98200.72;5109661;28;20264;-71
2022/10/10 03:41:27;;;;;;;7.60;6.27;;;;;;;9.81;100.00;98211.88;5106637;28;20535;-71
2022/10/10 03:43:54;;;;;;;8.33;6.93;;;;;;;9.73;100.00;98222.09;5108037;28;20598;-71
2022/10/10 03:46:21;;;;;;;7.83;6.53;;;;;;;9.66;100.00;98204.94;5110363;28;20598;-71
2022/10/10 03:48:48;;;;;;;9.23;7.23;;;;;;;9.61;100.00;98196.47;5109809;28;20302;-71
2022/10/10 03:51:14;;;;;;;8.77;7.20;;;;;;;9.63;100.00;98191.94;5106459;28;20225;-71
2022/10/10 03:53:41;;;;;;;10.03;7.60;;;;;;;9.63;100.00;98190.16;5106750;28;20351;-71
2022/10/10 03:56:09;;;;;;;9.27;7.03;;;;;;;9.66;100.00;98197.03;5108398;28;20650;-71
2022/10/10 03:58:36;;;;;;;8.07;6.13;;;;;;;9.66;100.00;98194.41;5109982;28;20613;-71
2022/10/10 04:01:03;;;;;;;7.83;6.90;;;;;;;9.65;100.00;98195.31;5106340;28;20264;-71
2022/10/10 04:03:30;;;;;;;7.93;6.63;;;;;;;9.66;100.00;98194.41;5107046;28;20230;-71
2022/10/10 04:05:57;;;;;;;8.33;6.50;;;;;;;9.65;100.00;98192.69;5110024;28;20265;-71
2022/10/10 04:08:24;;;;;;;8.10;6.97;;;;;;;9.66;100.00;98199.69;5110121;28;20255;-71
2022/10/10 04:10:52;;;;;;;9.00;6.67;;;;;;;9.65;100.00;98197.97;5106266;28;20566;-71
2022/10/10 04:13:21;;;;;;;9.73;7.20;;;;;;;9.66;100.00;98194.41;5106831;28;20278;-71
2022/10/10 04:15:50;;;;;;;9.53;6.80;;;;;;;9.65;100.00;98195.31;5109923;28;20228;-71
2022/10/10 04:18:17;;;;;;;10.60;7.23;;;;;;;9.66;100.00;98197.03;5109403;28;20222;-70
2022/10/10 04:20:44;;;;;;;8.10;6.53;;;;;;;9.64;100.00;98197.13;5105561;28;20231;-70
2022/10/10 04:23:10;;;;;;;9.43;6.73;;;;;;;9.63;100.00;98200.72;5109912;28;20255;-70
2022/10/10 04:25:37;;;;;;;7.00;6.20;;;;;;;9.63;100.00;98191.94;5109860;28;20261;-70
2022/10/10 04:28:04;;;;;;;7.93;6.63;;;;;;;9.65;100.00;98197.97;5109799;28;20273;-70
2022/10/10 04:30:34;;;;;;;9.50;7.07;;;;;;;9.66;100.00;98204.94;5105961;28;20230;-70
2022/10/10 04:33:01;;;;;;;8.27;6.60;;;;;;;9.64;100.00;98198.91;5106837;28;20307;-70
2022/10/10 04:35:27;;;;;;;8.80;6.67;;;;;;;9.64;100.00;98188.34;5109724;28;20260;-71
2022/10/10 04:37:54;;;;;;;10.13;7.70;;;;;;;9.62;100.00;98191.09;5109674;28;20257;-70
2022/10/10 04:40:21;;;;;;;10.27;7.90;;;;;;;9.60;100.00;98194.78;5105900;28;20276;-70
2022/10/10 04:42:47;;;;;;;10.77;8.03;;;;;;;9.59;100.00;98193.06;5106344;28;20529;-70
2022/10/10 04:45:14;;;;;;;8.20;7.00;;;;;;;9.58;100.00;98191.38;5109726;28;20314;-71
2022/10/10 04:47:42;;;;;;;12.77;7.57;;;;;;;9.55;100.00;98186.31;5107846;28;20261;-72
2022/10/10 04:50:09;;;;;;;9.27;7.27;;;;;;;9.50;100.00;98183.13;5106010;28;20229;-70
2022/10/10 04:52:35;;;;;;;8.60;6.80;;;;;;;9.49;100.00;98184.91;5106057;28;20274;-71
2022/10/10 04:55:02;;;;;;;11.03;7.73;;;;;;;9.49;100.00;98182.25;5105463;28;20286;-70
2022/10/10 04:57:29;;;;;;;9.60;7.13;;;;;;;9.45;100.00;98180.78;5108454;28;20264;-71
2022/10/10 04:59:55;;;;;;;10.10;7.63;;;;;;;9.46;100.00;98184.25;5110379;28;20631;-71
2022/10/10 05:02:22;;;;;;;11.33;7.73;;;;;;;9.40;100.00;98182.00;5109744;28;20267;-70
2022/10/10 05:04:50;;;;;;;10.63;7.80;;;;;;;9.34;100.00;98187.66;5113538;28;20265;-71
2022/10/10 05:07:16;;;;;;;9.00;7.23;;;;;;;9.37;100.00;98182.22;5113507;28;20289;-71
2022/10/10 05:09:43;;;;;;;10.83;7.80;;;;;;;9.42;100.00;98183.59;5110385;28;20681;-71
2022/10/10 05:12:10;;;;;;;8.37;7.20;;;;;;;9.47;100.00;98189.44;5107534;28;20324;-71
2022/10/10 05:14:36;;;;;;;9.50;7.60;;;;;;;9.49;100.00;98192.00;5113005;28;20308;-70
2022/10/10 05:17:03;;;;;;;9.27;7.57;;;;;;;9.51;100.00;98182.19;5113198;28;20262;-71
2022/10/10 05:19:29;;;;;;;9.10;6.97;;;;;;;9.50;100.00;98183.13;5110699;28;20265;-71
2022/10/10 05:21:57;;;;;;;10.10;7.10;;;;;;;9.49;100.00;98186.72;5109301;28;20269;-71
2022/10/10 05:24:25;;;;;;;8.53;7.10;;;;;;;9.47;100.00;98184.16;5112394;28;20259;-71
2022/10/10 05:26:51;;;;;;;8.83;7.57;;;;;;;9.46;100.00;98177.19;5112972;28;20227;-71
2022/10/10 05:29:18;;;;;;;11.27;7.47;;;;;;;9.46;100.00;98181.63;5110660;28;20263;-71
2022/10/10 05:31:45;;;;;;;8.20;7.13;;;;;;;9.44;100.00;98184.38;5108903;28;20272;-71
2022/10/10 05:34:13;;;;;;;7.80;7.00;;;;;;;9.44;100.00;98188.78;5111774;28;20270;-71
2022/10/10 05:36:39;;;;;;;9.23;6.93;;;;;;;9.45;100.00;98196.63;5115239;28;20227;-71
2022/10/10 05:39:09;;;;;;;9.17;7.37;;;;;;;9.48;100.00;98200.84;5109222;28;20262;-70
2022/10/10 05:41:35;;;;;;;12.20;8.13;;;;;;;9.50;100.00;98198.97;5109069;28;20238;-72
2022/10/10 05:44:02;;;;;;;10.47;7.70;;;;;;;9.45;100.00;98201.03;5111947;28;20258;-72
2022/10/10 05:46:29;;;;;;;8.53;7.30;;;;;;;9.44;100.00;98194.06;5112678;28;20248;-71
2022/10/10 05:48:55;;;;;;;9.57;7.70;;;;;;;9.47;100.00;98202.63;5110835;28;20271;-70
2022/10/10 05:51:22;;;;;;;11.33;8.00;;;;;;;9.45;100.00;98206.31;5108742;28;20280;-71
2022/10/10 05:53:49;;;;;;;11.13;7.67;;;;;;;9.42;100.00;98203.88;5111157;28;20281;-71
2022/10/10 05:56:17;;;;;;;8.13;7.00;;;;;;;9.40;100.00;98211.03;5112214;28;20257;-70
2022/10/10 05:58:44;;;;;;;9.40;7.30;;;;;;;9.40;100.00;98211.88;5110863;28;20230;-70
2022/10/10 06:01:12;;;;;;;10.77;8.70;;;;;;;9.43;100.00;98216.13;5108740;28;20256;-70
2022/10/10 06:03:38;;;;;;;10.67;8.33;;;;;;;9.44;100.00;98210.75;5110540;28;20261;-70
2022/10/10 06:06:05;;;;;;;10.77;7.90;;;;;;;9.49;100.00;98213.91;5111243;28;20290;-70
2022/10/10 06:08:32;;;;;;;11.43;8.27;;;;;;;9.55;100.00;98215.34;5109779;28;20325;-70
2022/10/10 06:11:02;;;;;;;9.93;7.97;;;;;;;9.60;100.00;98213.25;5108545;28;20224;-70
2022/10/10 06:13:30;;;;;;;10.30;7.50;;;;;;;9.65;100.00;98224.34;5110713;28;20248;-70
2022/10/10 06:15:57;;;;;;;9.57;7.37;;;;;;;9.67;100.00;98222.47;5112157;28;20264;-70
2022/10/10 06:18:24;;;;;;;11.60;7.97;;;;;;;9.70;100.00;98219.63;5110494;28;20263;-70
2022/10/10 06:20:50;;;;;;;12.83;8.50;;;;;;;9.73;100.00;98212.34;5108233;28;20269;-71
2022/10/10 06:23:18;;;;;;;11.77;8.07;;;;;;;9.82;100.00;98213.56;5110336;28;20261;-70
2022/10/10 06:25:45;;;;;;;10.50;8.10;;;;;;;9.94;100.00;98216.25;5111934;28;20222;-70
2022/10/10 06:28:12;;;;;;;11.67;8.00;;;;;;;10.09;100.00;98223.19;5110646;28;20237;-70
2022/10/10 06:30:47;;;;;;;9.03;7.60;;;;;;;10.20;100.00;98225.97;5106381;28;20257;-70
2022/10/10 06:33:15;;;;;;;10.57;7.80;;;;;;;10.27;100.00;98229.91;5111189;28;20648;-70
2022/10/10 06:35:42;;;;;;;8.93;7.33;;;;;;;10.36;100.00;98229.31;5112034;28;20235;-70
2022/10/10 06:38:09;;;;;;;11.57;7.50;;;;;;;10.48;100.00;98238.19;5109463;28;20283;-71
2022/10/10 06:40:36;;;;;;;10.97;7.60;;;;;;;10.63;100.00;98234.50;5107916;28;20643;-71
2022/10/10 06:43:03;;;;;;;9.17;6.77;;;;;;;10.71;100.00;98235.69;5110785;28;20596;-71
2022/10/10 06:45:30;;;;;;;8.13;7.23;;;;;;;10.75;100.00;98241.59;5111507;28;20683;-71
2022/10/10 06:47:58;;;;;;;7.83;6.50;;;;;;;10.73;100.00;98244.38;5109729;28;20271;-72
2022/10/10 06:50:25;;;;;;;9.77;7.33;;;;;;;10.73;100.00;98251.44;5107832;28;20271;-71
2022/10/10 06:52:52;;;;;;;10.37;7.20;;;;;;;10.76;100.00;98254.72;5110809;28;20256;-72
2022/10/10 06:55:19;;;;;;;9.03;7.13;;;;;;;10.87;100.00;98251.34;5105144;28;20265;-72
2022/10/10 06:57:45;;;;;;;8.97;7.20;;;;;;;10.97;100.00;98257.72;5105910;28;20257;-72
2022/10/10 07:00:13;;;;;;;7.53;6.70;;;;;;;11.10;100.00;98253.25;5107630;28;20585;-72
2022/10/10 07:02:41;;;;;;;8.97;7.17;;;;;;;11.22;100.00;98253.28;5109985;28;20260;-72
2022/10/10 07:05:10;;;;;;;9.57;7.07;;;;;;;11.33;100.00;98260.44;5111322;28;20228;-72
2022/10/10 07:07:37;;;;;;;9.23;7.20;;;;;;;11.45;100.00;98256.94;5109155;28;20291;-71
2022/10/10 07:10:04;;;;;;;8.60;6.70;;;;;;;11.65;100.00;98248.44;5105809;28;20269;-72
2022/10/10 07:12:31;;;;;;;9.77;6.80;;;;;;;11.87;100.00;98257.38;5109174;28;20288;-73
2022/10/10 07:14:58;;;;;;;11.73;7.03;;;;;;;12.06;100.00;98262.22;5111276;28;20261;-73
2022/10/10 07:17:24;;;;;;;8.53;6.80;;;;;;;12.14;100.00;98249.22;5109471;28;20263;-73
2022/10/10 07:19:51;;;;;;;9.57;7.30;;;;;;;12.16;100.00;98252.63;5098984;28;20640;-73
2022/10/10 07:22:19;;;;;;;9.40;7.23;;;;;;;12.21;100.00;98256.63;5106067;28;20266;-73
2022/10/10 07:24:45;;;;;;;7.43;6.60;;;;;;;12.37;100.00;98266.94;5109530;28;20267;-73
2022/10/10 07:27:12;;;;;;;7.37;6.50;;;;;;;12.48;100.00;98269.66;5106482;28;20226;-72
2022/10/10 07:29:39;;;;;;;6.83;6.00;;;;;;;12.52;100.00;98266.63;5105661;28;20630;-72
2022/10/10 07:32:05;;;;;;;9.30;6.00;;;;;;;12.60;100.00;98274.03;5107489;28;20261;-72
2022/10/10 07:34:32;;;;;;;7.27;6.07;;;;;;;12.64;100.00;98275.47;5109255;28;20311;-73
2022/10/10 07:36:58;;;;;;;7.30;5.87;;;;;;;12.67;100.00;98275.25;5108371;28;20266;-73
2022/10/10 07:39:26;;;;;;;7.93;6.30;;;;;;;12.68;100.00;98271.63;5105241;28;20275;-73
2022/10/10 07:41:53;;;;;;;6.87;6.10;;;;;;;12.74;100.00;98274.69;5106938;28;20261;-74
2022/10/10 07:44:20;;;;;;;7.83;5.80;;;;;;;12.82;100.00;98279.38;5109215;28;20257;-73
2022/10/10 07:46:47;;;;;;;6.53;5.87;;;;;;;12.82;100.00;98276.72;5107254;28;20588;-69
2022/10/10 07:49:14;;;;;;;7.90;6.03;;;;;;;12.76;100.00;98285.16;5102523;28;20262;-74
2022/10/10 07:51:41;;;;;;;9.47;6.00;;;;;;;12.67;100.00;98285.88;5103677;28;20304;-72
2022/10/10 07:54:07;;;;;;;8.93;6.43;;;;;;;12.62;100.00;98283.56;5105717;28;20280;-72
2022/10/10 07:56:35;;;;;;;10.90;7.57;;;;;;;12.71;100.00;98282.03;5106262;28;20300;-73
2022/10/10 07:59:02;;;;;;;8.40;7.00;;;;;;;12.90;100.00;98292.94;5103946;28;20235;-72
2022/10/10 08:01:29;;;;;;;7.23;6.50;;;;;;;13.04;100.00;98290.97;5109297;28;20257;-72
2022/10/10 08:03:56;;;;;;;10.03;7.23;;;;;;;13.26;100.00;98290.16;5108535;28;20268;-73
2022/10/10 08:06:23;;;;;;;9.40;7.00;;;;;;;13.51;100.00;98288.09;5102793;28;20223;-72
2022/10/10 08:08:50;;;;;;;10.67;6.50;;;;;;;13.76;100.00;98284.38;5102985;28;20337;-72
2022/10/10 08:11:17;;;;;;;7.23;6.30;;;;;;;13.95;100.00;98292.56;5104812;28;20501;-73
2022/10/10 08:13:45;;;;;;;8.87;6.57;;;;;;;14.18;100.00;98291.56;5107704;28;20299;-72
2022/10/10 08:16:12;;;;;;;8.63;6.17;;;;;;;14.35;100.00;98291.06;5104868;28;20266;-72
2022/10/10 08:18:39;;;;;;;7.47;5.80;;;;;;;14.49;100.00;98282.78;5103775;28;20268;-75
2022/10/10 08:21:08;;;;;;;8.27;6.37;;;;;;;14.66;100.00;98276.94;5102670;28;20263;-75
2022/10/10 08:23:35;;;;;;;8.47;6.73;;;;;;;14.83;100.00;98286.97;5105071;28;20255;-75
2022/10/10 08:26:04;;;;;;;7.80;6.17;;;;;;;14.94;100.00;98292.25;5105792;28;20258;-75
2022/10/10 08:28:31;;;;;;;7.33;5.83;;;;;;;15.01;100.00;98282.78;5103227;28;20266;-75
2022/10/10 08:30:59;;;;;;;7.63;5.93;;;;;;;15.05;100.00;98284.22;5105519;28;20312;-75
2022/10/10 08:33:26;;;;;;;7.37;5.67;;;;;;;15.02;100.00;98290.63;5095469;28;20256;-75
2022/10/10 08:35:53;;;;;;;7.83;5.80;;;;;;;14.98;100.00;98280.38;5096477;28;20266;-75
2022/10/10 08:38:20;;;;;;;10.27;5.73;;;;;;;14.89;100.00;98281.16;5096584;28;20268;-76
2022/10/10 08:40:48;;;;;;;6.47;5.13;;;;;;;14.83;100.00;98284.31;5096682;28;20270;-76
2022/10/10 08:43:22;;;;;;;7.60;5.40;;;;;;;14.73;100.00;98288.75;5095161;28;20301;-77
2022/10/10 08:45:51;;;;;;;6.73;5.73;;;;;;;14.58;100.00;98284.69;5096314;28;20219;-77
2022/10/10 08:48:24;;;;;;;7.60;5.57;;;;;;;14.48;100.00;98284.59;5096286;28;20497;-76
2022/10/10 08:50:56;;;;;;;7.10;5.53;;;;;;;14.52;100.00;98283.38;5097009;28;20300;-77
2022/10/10 08:53:30;;;;;;;7.93;5.53;;;;;;;14.69;100.00;98288.16;5096210;28;20284;-77
2022/10/10 08:55:57;;;;;;;7.20;5.97;;;;;;;14.87;100.00;98275.97;5107883;28;20397;-77
2022/10/10 08:58:29;;;;;;;9.90;6.80;;;;;;;14.96;100.00;98285.00;5099008;28;20330;-77
2022/10/10 09:01:04;;;;;;;6.77;5.90;;;;;;;14.98;100.00;98283.88;5096496;28;20303;-77
2022/10/10 09:03:38;;;;;;;6.70;5.60;;;;;;;15.09;100.00;98285.66;5096251;28;20253;-76
2022/10/10 09:06:22;;;;;;;7.33;5.40;;;;;;;15.16;100.00;98286.81;5098053;28;20228;-77
2022/10/10 09:08:57;;;;;;;7.77;6.33;;;;;;;15.30;100.00;98278.47;5096529;28;20651;-75
2022/10/10 09:11:37;;;;;;;8.67;6.03;;;;;;;15.53;100.00;98282.72;5098182;28;20285;-77
2022/10/10 09:14:14;;;;;;;6.63;5.47;;;;;;;15.78;99.25;98284.94;5097776;28;20309;-78
2022/10/10 09:16:47;;;;;;;6.80;5.53;;;;;;;15.91;98.63;98285.53;5098189;28;20263;-76
2022/10/10 09:19:40;;;;;;;7.80;6.03;;;;;;;15.89;97.09;98285.66;5098758;28;20249;-75
2022/10/10 09:22:13;;;;;;;7.30;6.60;;;;;;;15.96;95.39;98283.31;5091560;28;20602;-75
2022/10/10 09:24:45;;;;;;;6.43;5.73;;;;;;;16.08;95.61;98292.88;5095965;28;20264;-76
2022/10/10 09:27:16;;;;;;;7.17;5.30;;;;;;;16.32;95.07;98289.72;5095983;28;20226;-75
2022/10/10 09:29:47;;;;;;;8.47;5.67;;;;;;;16.59;94.16;98284.56;5095842;28;20256;-70
2022/10/10 09:32:18;;;;;;;8.00;5.67;;;;;;;16.82;93.26;98291.31;5096541;28;20681;-70
2022/10/10 09:34:50;;;;;;;7.53;5.20;;;;;;;16.99;91.21;98298.63;5094000;28;20253;-70
2022/10/10 09:37:22;;;;;;;6.87;5.20;;;;;;;16.93;90.64;98285.84;5095865;28;20317;-70
2022/10/10 09:39:56;;;;;;;6.03;5.20;;;;;;;16.81;91.58;98289.66;5096530;28;20265;-70
2022/10/10 09:42:32;;;;;;;6.87;5.33;;;;;;;16.77;93.28;98293.56;5097154;28;20262;-71
2022/10/10 09:44:58;;;;;;;8.70;5.33;;;;;;;16.84;93.41;98305.41;5099304;28;20221;-70
2022/10/10 09:47:25;;;;;;;6.97;5.30;;;;;;;17.06;92.42;98305.09;5111871;28;20276;-70
2022/10/10 09:49:53;;;;;;;7.70;5.20;;;;;;;17.41;90.50;98294.66;5101004;28;20262;-70
2022/10/10 09:52:26;;;;;;;11.47;5.10;;;;;;;17.72;88.06;98292.59;5099220;28;20653;-70
2022/10/10 09:54:57;;;;;;;6.70;5.37;;;;;;;17.74;86.78;98290.63;5101565;28;20289;-70
2022/10/10 09:57:26;;;;;;;8.13;5.23;;;;;;;17.77;88.47;98291.19;5101985;28;20276;-70
2022/10/10 09:59:53;;;;;;;6.93;5.30;;;;;;;17.80;89.39;98296.22;5099162;28;20230;-70
2022/10/10 10:02:21;;;;;;;7.77;5.40;;;;;;;17.88;90.80;98299.03;5097289;28;20284;-71
2022/10/10 10:04:49;;;;;;;6.53;5.17;;;;;;;17.97;90.80;98308.81;5098934;28;20220;-72
2022/10/10 10:07:27;;;;;;;5.53;4.40;;;;;;;18.01;88.84;98299.53;5099103;28;20333;-74
2022/10/10 10:09:56;;;;;;;7.70;5.43;;;;;;;18.11;88.03;98300.31;5098797;28;20230;-72
2022/10/10 10:12:25;;;;;;;6.07;4.97;;;;;;;18.13;88.97;98301.00;5098767;28;20258;-72
2022/10/10 10:14:59;;;;;;;6.93;5.30;;;;;;;18.08;89.11;98303.28;5098711;28;20533;-73
2022/10/10 10:17:26;;;;;;;7.10;4.70;;;;;;;18.12;88.46;98296.66;5099489;28;20257;-73
2022/10/10 10:19:52;;;;;;;8.37;5.20;;;;;;;18.20;88.13;98298.56;5098804;28;20278;-73
2022/10/10 10:22:29;;;;;;;5.77;4.57;;;;;;;18.31;87.87;98296.59;5098784;28;20264;-72
2022/10/10 10:24:57;;;;;;;6.87;4.30;;;;;;;18.32;87.36;98295.59;5098719;28;20254;-72
2022/10/10 10:27:26;;;;;;;4.60;3.90;;;;;;;18.24;87.49;98295.44;5097393;28;20227;-73
2022/10/10 10:29:55;;;;;;;7.10;4.43;;;;;;;18.09;87.58;98291.59;5098541;28;20223;-73
2022/10/10 10:32:41;;;;;;;6.03;4.50;;;;;;;17.90;88.47;98293.50;5098985;28;20280;-73
2022/10/10 10:35:22;;;;;;;4.97;4.37;;;;;;;17.74;90.29;98296.81;5099976;28;20277;-73
2022/10/10 10:38:08;;;;;;;8.70;4.90;;;;;;;17.74;91.83;98296.81;5099120;28;20258;-73
2022/10/10 10:40:40;;;;;;;5.17;4.57;;;;;;;17.88;91.21;98296.34;5099326;28;20258;-73
2022/10/10 10:43:32;;;;;;;5.50;4.20;;;;;;;18.05;90.68;98295.53;5117328;28;20258;-73
2022/10/10 10:46:09;;;;;;;5.93;4.10;;;;;;;18.25;89.04;98296.28;5117493;28;20269;-73
2022/10/10 10:48:42;;;;;;;5.90;3.83;;;;;;;18.40;88.40;98290.31;5117760;28;20221;-73
2022/10/10 10:51:28;;;;;;;4.17;3.70;;;;;;;18.54;87.44;98297.81;5098853;28;20279;-73
2022/10/10 10:54:06;;;;;;;5.00;3.97;;;;;;;18.71;86.84;98291.63;5095673;28;20273;-72
2022/10/10 10:56:41;;;;;;;5.97;3.90;;;;;;;18.83;86.61;98294.94;5113312;28;20298;-73
2022/10/10 10:59:26;;;;;;;5.60;3.60;;;;;;;18.87;86.28;98294.47;5098016;28;20646;-73
2022/10/10 11:02:00;;;;;;;5.40;3.47;;;;;;;18.91;86.23;98284.31;5106081;28;20269;-73
2022/10/10 11:04:47;;;;;;;4.87;3.77;;;;;;;18.97;86.48;98283.69;5100815;28;20265;-73
2022/10/10 11:07:17;;;;;;;6.17;3.60;;;;;;;18.98;85.74;98270.16;5097619;28;20270;-73
2022/10/10 11:09:51;;;;;;;6.07;3.63;;;;;;;18.92;85.58;98278.78;5097765;28;20262;-73
2022/10/10 11:12:41;;;;;;;6.47;3.97;;;;;;;18.81;85.44;98284.38;5098443;28;20502;-73
2022/10/10 11:15:15;;;;;;;4.67;3.37;;;;;;;18.83;86.89;98281.56;5097379;28;20696;-73
2022/10/10 11:17:47;;;;;;;6.47;3.83;;;;;;;18.76;86.69;98275.09;5097543;28;20289;-73
2022/10/10 11:20:22;;;;;;;4.10;3.27;;;;;;;18.77;86.20;98266.09;5096465;28;20643;-73
2022/10/10 11:22:56;;;;;;;5.67;3.90;;;;;;;18.82;86.69;98279.84;5097547;28;20214;-72
2022/10/10 11:25:29;;;;;;;10.27;3.73;;;;;;;18.84;87.15;98272.53;5097445;28;20304;-72
2022/10/10 11:28:03;;;;;;;4.93;3.50;;;;;;;18.92;89.24;98264.53;5097931;28;20226;-73
2022/10/10 11:30:33;;;;;;;4.77;3.20;;;;;;;18.99;87.17;98260.25;5097431;28;20262;-73
2022/10/10 11:33:06;;;;;;;5.67;3.53;;;;;;;19.08;86.82;98259.34;5097256;28;20272;-73
2022/10/10 11:35:40;;;;;;;5.43;3.13;;;;;;;19.14;86.20;98267.56;5097187;28;20250;-73
2022/10/10 11:38:18;;;;;;;6.37;3.30;;;;;;;19.09;84.46;98261.84;5097832;28;20624;-73